Time;durP1;ratioP1;P1;durP2;ratioP2;P2;SDS_P1;SDS_P2;PMS_P1;PMS_P2;Temp;Humidity;BMP_temperature;BMP_pressure;BME280_temperature;BME280_humidity;BME280_pressure;Samples;Min_cycle;Max_cycle;Signal;HPM_P1;HPM_P2
2023/04/28 00:09:44;;;;;;;116.00;54.80;;;;;;;4.55;62.90;99040.41;436187;1250;95322;-42
2023/04/28 00:19:49;;;;;;;101.00;49.90;;;;;;;4.50;63.10;99037.16;435548;1251;96761;-41
2023/04/28 00:29:54;;;;;;;67.60;33.90;;;;;;;4.52;63.35;99041.86;437162;1254;106972;-42
2023/04/28 00:39:57;;;;;;;58.40;31.70;;;;;;;4.59;63.40;99037.48;437833;1250;95532;-42
2023/04/28 00:50:06;;;;;;;86.90;40.80;;;;;;;4.69;63.48;99038.96;438040;1254;108089;-42
2023/04/28 01:00:11;;;;;;;89.30;42.00;;;;;;;4.64;63.61;99044.20;436557;1253;107653;-42
2023/04/28 01:10:15;;;;;;;104.10;51.80;;;;;;;4.57;63.84;99049.62;436064;1254;106693;-42
2023/04/28 01:20:18;;;;;;;101.30;53.90;;;;;;;4.43;63.85;99051.11;436558;1254;95573;-42
2023/04/28 01:30:22;;;;;;;71.00;38.00;;;;;;;4.34;63.90;99047.97;436334;1254;107718;-40
2023/04/28 01:40:26;;;;;;;78.30;42.40;;;;;;;4.29;63.98;99043.30;437782;1250;96706;-42
2023/04/28 01:50:30;;;;;;;115.00;57.80;;;;;;;4.15;64.39;99048.05;436400;1255;95295;-41
2023/04/28 02:00:34;;;;;;;112.90;57.80;;;;;;;4.01;64.48;99050.80;436406;1253;96804;-41
2023/04/28 02:10:38;;;;;;;112.40;56.50;;;;;;;3.68;64.65;99043.81;436059;1254;110708;-41
2023/04/28 02:20:45;;;;;;;103.80;54.50;;;;;;;3.42;64.89;99035.40;437491;1254;96158;-42
2023/04/28 02:30:50;;;;;;;113.10;59.50;;;;;;;3.14;65.08;99038.77;435429;1250;95293;-41
2023/04/28 02:51:01;;;;;;;67.40;39.00;;;;;;;2.83;65.78;99029.36;435854;1254;109333;-41
2023/04/28 03:01:08;;;;;;;89.50;44.70;;;;;;;2.87;65.79;99032.87;436969;1254;95680;-42
2023/04/28 03:11:12;;;;;;;105.60;51.40;;;;;;;2.58;66.00;99038.37;436902;1256;109661;-41
2023/04/28 03:21:19;;;;;;;88.00;43.80;;;;;;;2.34;66.10;99036.31;435446;1251;95966;-40
2023/04/28 03:31:23;;;;;;;97.30;47.20;;;;;;;2.19;66.52;99039.71;435301;1254;95999;-44
2023/04/28 03:41:27;;;;;;;94.40;47.00;;;;;;;2.20;66.99;99041.77;435049;1254;411410;-43
2023/04/28 04:01:34;;;;;;;66.90;38.50;;;;;;;2.80;67.45;99037.83;435246;1257;96965;-41
2023/04/28 04:11:38;;;;;;;101.80;49.60;;;;;;;3.41;67.78;99034.48;435374;1254;107995;-41
2023/04/28 04:21:45;;;;;;;101.90;51.10;;;;;;;4.01;67.71;99036.50;435474;1255;96517;-40
2023/04/28 04:31:52;;;;;;;92.80;49.00;;;;;;;4.86;67.46;99037.77;435290;1256;96114;-41
2023/04/28 05:02:04;;;;;;;96.50;49.90;;;;;;;6.04;66.23;99036.27;435461;1250;106853;-40
2023/04/28 05:12:07;;;;;;;74.40;39.20;;;;;;;7.17;65.73;99028.80;435296;1254;96012;-42
2023/04/28 05:22:11;;;;;;;62.50;33.50;;;;;;;8.17;65.05;99025.08;435312;1256;109321;-41
2023/04/28 05:32:15;;;;;;;57.40;30.20;;;;;;;8.77;63.98;99023.31;435296;1256;96367;-41
2023/04/28 05:42:22;;;;;;;69.30;30.50;;;;;;;9.58;63.19;99020.73;435395;1250;96935;-42
2023/04/28 05:52:27;;;;;;;51.00;27.00;;;;;;;10.88;61.88;99023.23;435581;1254;96299;-40
2023/04/28 06:02:31;;;;;;;41.60;24.40;;;;;;;11.82;60.09;99013.00;435535;1250;96095;-42
2023/04/28 06:42:49;;;;;;;32.40;19.70;;;;;;;14.28;52.78;99004.54;435383;1256;108129;-42
2023/04/28 06:52:53;;;;;;;19.50;14.00;;;;;;;13.99;50.55;99003.43;435457;1250;95298;-41
2023/04/28 07:02:57;;;;;;;23.20;13.40;;;;;;;14.26;49.53;98992.77;435227;1256;96918;-41
2023/04/28 07:13:25;;;;;;;21.60;13.70;;;;;;;14.05;47.09;98987.23;435246;1250;108310;-42
2023/04/28 07:23:29;;;;;;;28.00;14.50;;;;;;;13.99;46.70;98971.72;435367;1256;96071;-44
2023/04/28 07:33:33;;;;;;;21.80;13.20;;;;;;;14.03;45.63;98963.86;435422;1256;96073;-42
2023/04/28 07:43:36;;;;;;;21.00;12.50;;;;;;;14.65;46.30;98953.70;435286;1250;108416;-42
2023/04/28 07:53:43;;;;;;;13.80;9.80;;;;;;;14.68;43.47;98951.77;435338;1254;96129;-42
2023/04/28 08:03:47;;;;;;;15.50;9.20;;;;;;;14.85;43.32;98941.48;435477;1253;109355;-42
2023/04/28 08:13:51;;;;;;;16.20;7.70;;;;;;;14.92;41.35;98938.85;435366;1250;96120;-42
2023/04/28 08:23:56;;;;;;;15.90;7.50;;;;;;;15.52;42.58;98927.69;435358;1252;97865;-42
2023/04/28 08:33:59;;;;;;;11.10;7.70;;;;;;;15.87;41.29;98921.52;435317;1256;111520;-42
2023/04/28 08:44:06;;;;;;;10.70;6.50;;;;;;;15.78;40.73;98907.80;435386;1257;98251;-41
2023/04/28 08:54:13;;;;;;;14.60;8.00;;;;;;;16.23;39.92;98904.52;435319;1256;97933;-42
2023/04/28 09:04:29;;;;;;;16.70;8.50;;;;;;;16.38;39.93;98903.30;435267;1255;113007;-43
2023/04/28 09:14:35;;;;;;;12.50;7.70;;;;;;;16.53;40.33;98890.44;435215;1251;108035;-40
2023/04/28 09:44:52;;;;;;;23.30;8.70;;;;;;;16.55;37.63;98858.68;436490;1255;97893;-42
2023/04/28 09:54:57;;;;;;;11.70;7.30;;;;;;;17.04;37.47;98848.08;436001;1264;97482;-46
2023/04/28 10:15:08;;;;;;;20.10;8.60;;;;;;;16.84;36.25;98824.52;435824;1251;108868;-41
2023/04/28 10:25:24;;;;;;;12.20;6.70;;;;;;;16.03;36.35;98818.64;435712;1254;97852;-41
2023/04/28 10:35:42;;;;;;;12.80;7.70;;;;;;;16.68;36.99;98806.61;435395;1254;109804;-41
2023/04/28 10:46:07;;;;;;;19.90;7.00;;;;;;;17.04;37.40;98793.10;435348;1254;108163;-42
2023/04/28 10:56:13;;;;;;;9.30;7.10;;;;;;;17.99;36.44;98775.76;435405;1251;96639;-43
2023/04/28 11:06:25;;;;;;;7.50;5.90;;;;;;;17.78;35.73;98766.08;435395;1251;110666;-42
2023/04/28 11:26:52;;;;;;;12.50;5.30;;;;;;;17.56;35.12;98745.66;435543;1255;97868;-41
2023/04/28 11:36:56;;;;;;;11.10;5.40;;;;;;;17.21;35.89;98741.77;435847;1254;96644;-42
2023/04/28 11:47:02;;;;;;;12.50;5.60;;;;;;;17.52;34.94;98734.96;435334;1252;106627;-42
2023/04/28 11:57:16;;;;;;;10.80;5.40;;;;;;;17.49;34.35;98723.92;435346;1251;97511;-42
2023/04/28 12:07:24;;;;;;;12.60;6.30;;;;;;;17.32;34.58;98713.80;435240;1255;107228;-43
2023/04/28 12:17:29;;;;;;;9.50;6.20;;;;;;;17.42;34.88;98714.84;435213;1251;97225;-43
2023/04/28 12:27:34;;;;;;;9.10;5.90;;;;;;;17.58;34.78;98707.04;435403;1251;110203;-42
2023/04/28 12:37:42;;;;;;;7.60;5.40;;;;;;;17.80;34.46;98686.44;435267;1256;108547;-46
2023/04/28 12:47:46;;;;;;;12.30;5.60;;;;;;;17.86;34.51;98672.45;435382;1254;97992;-42
2023/04/28 12:57:50;;;;;;;9.50;5.30;;;;;;;17.81;34.72;98665.19;435350;1255;97893;-43
2023/04/28 13:07:53;;;;;;;8.80;5.50;;;;;;;17.42;34.89;98646.41;435280;1251;108606;-42
2023/04/28 13:28:01;;;;;;;8.90;5.30;;;;;;;18.23;35.15;98626.55;435905;1254;106378;-42
2023/04/28 13:38:06;;;;;;;11.70;6.50;;;;;;;18.21;34.62;98617.75;435391;1251;96606;-42
2023/04/28 13:48:11;;;;;;;11.50;5.20;;;;;;;17.85;34.35;98613.70;435328;1251;110013;-42
2023/04/28 13:58:17;;;;;;;9.90;5.30;;;;;;;17.60;34.30;98594.90;435357;1250;108554;-42
2023/04/28 14:08:22;;;;;;;8.00;4.90;;;;;;;17.70;34.70;98579.73;435219;1250;97848;-42
2023/04/28 14:18:32;;;;;;;7.50;5.50;;;;;;;17.81;34.58;98575.98;435383;1254;107634;-42
2023/04/28 14:38:40;;;;;;;19.20;7.00;;;;;;;17.54;34.36;98559.42;435316;1251;111199;-44
2023/04/28 14:48:44;;;;;;;7.70;6.00;;;;;;;17.61;34.02;98553.23;435307;1251;108291;-41
2023/04/28 14:58:48;;;;;;;10.30;4.80;;;;;;;17.54;34.13;98549.59;435412;1254;98367;-41
2023/04/28 15:08:52;;;;;;;8.20;4.70;;;;;;;17.43;34.32;98551.58;435275;1254;97864;-43
2023/04/28 15:18:55;;;;;;;8.70;5.40;;;;;;;17.28;34.51;98548.93;435309;1251;108480;-42
2023/04/28 15:29:00;;;;;;;8.50;3.90;;;;;;;17.04;34.25;98542.29;435155;1254;97874;-42
2023/04/28 15:39:09;;;;;;;8.60;4.80;;;;;;;16.90;34.39;98536.75;435236;1251;97864;-42
2023/04/28 15:49:12;;;;;;;18.50;5.70;;;;;;;16.85;33.95;98524.53;435068;1250;484444;-42
2023/04/28 15:59:17;;;;;;;14.40;6.00;;;;;;;16.76;34.31;98518.09;435248;1254;98264;-41
2023/04/28 16:09:21;;;;;;;5.70;4.40;;;;;;;16.73;34.69;98508.33;435246;1255;98011;-43
2023/04/28 16:19:25;;;;;;;7.50;4.90;;;;;;;16.59;34.52;98498.12;435312;1256;107101;-45
2023/04/28 16:29:30;;;;;;;9.80;5.00;;;;;;;16.29;34.66;98494.17;435395;1250;96653;-42
2023/04/28 16:39:33;;;;;;;9.70;4.70;;;;;;;16.01;34.52;98487.38;435341;1250;109461;-42
2023/04/28 16:49:37;;;;;;;13.60;5.40;;;;;;;15.83;35.36;98481.27;435270;1250;97511;-41
2023/04/28 16:59:41;;;;;;;17.70;11.50;;;;;;;15.65;35.56;98475.33;435511;1253;109352;-42
2023/04/28 17:10:09;;;;;;;19.40;7.90;;;;;;;15.41;35.78;98472.24;435150;1250;108121;-42
2023/04/28 17:20:18;;;;;;;13.50;6.80;;;;;;;15.21;36.02;98471.84;435235;1256;97915;-42
2023/04/28 17:30:23;;;;;;;10.70;6.90;;;;;;;14.99;36.56;98463.84;435263;1250;109502;-43
2023/04/28 17:40:26;;;;;;;20.10;9.70;;;;;;;14.76;37.18;98456.27;435250;1250;107825;-42
2023/04/28 17:50:30;;;;;;;27.10;13.10;;;;;;;14.46;37.66;98456.06;435192;1251;96652;-41
2023/04/28 18:00:34;;;;;;;39.80;20.60;;;;;;;14.11;38.24;98456.33;435247;1255;97785;-42
2023/04/28 18:10:38;;;;;;;20.90;12.30;;;;;;;13.78;38.84;98463.17;435329;1254;108613;-42
2023/04/28 18:40:54;;;;;;;16.60;10.50;;;;;;;12.95;39.98;98471.48;435333;1250;107993;-41
2023/04/28 18:50:58;;;;;;;26.10;13.00;;;;;;;12.72;40.43;98480.66;435514;1254;97880;-42
2023/04/28 19:01:02;;;;;;;20.90;10.50;;;;;;;12.57;40.68;98486.36;435291;1254;97874;-41
2023/04/28 19:21:13;;;;;;;21.90;12.70;;;;;;;12.14;41.62;98507.87;435399;1254;98456;-41
2023/04/28 19:31:16;;;;;;;23.70;13.00;;;;;;;11.84;42.18;98506.45;435189;1254;109217;-42
2023/04/28 19:41:20;;;;;;;24.00;12.50;;;;;;;11.63;42.61;98495.14;435320;1250;108096;-44
2023/04/28 19:51:23;;;;;;;26.00;12.90;;;;;;;11.62;43.00;98493.37;435294;1254;97870;-41
2023/04/28 20:01:27;;;;;;;25.20;15.60;;;;;;;11.54;43.18;98491.14;435428;1254;96647;-41
2023/04/28 20:21:35;;;;;;;25.10;13.60;;;;;;;11.21;43.72;98487.81;435450;1250;98346;-41
2023/04/28 20:31:39;;;;;;;25.90;14.60;;;;;;;11.01;44.00;98483.52;435242;1253;97880;-41
2023/04/28 20:41:47;;;;;;;35.10;17.80;;;;;;;10.81;44.28;98483.88;435285;1254;108600;-41
2023/04/28 21:01:54;;;;;;;26.40;13.40;;;;;;;10.63;45.15;98481.07;435436;1253;97480;-42
2023/04/28 21:11:58;;;;;;;26.40;13.40;;;;;;;10.67;45.32;98472.38;435421;1254;107828;-41
2023/04/28 21:22:03;;;;;;;21.50;13.20;;;;;;;10.72;45.75;98475.36;435434;1254;97936;-41
2023/04/28 21:32:07;;;;;;;21.60;12.30;;;;;;;10.76;45.62;98474.14;435345;1250;97961;-42
2023/04/28 21:42:11;;;;;;;17.10;10.70;;;;;;;10.78;45.64;98470.69;435410;1250;106413;-41
2023/04/28 21:52:15;;;;;;;16.70;11.10;;;;;;;10.77;45.39;98470.05;435185;1250;98308;-41
2023/04/28 22:02:19;;;;;;;19.10;10.90;;;;;;;10.71;45.29;98468.60;435371;1250;108490;-42
2023/04/28 22:12:23;;;;;;;20.40;10.90;;;;;;;10.51;45.44;98465.28;435220;1251;97823;-43
2023/04/28 22:22:26;;;;;;;18.40;9.70;;;;;;;10.24;45.50;98461.63;435346;1250;110020;-41
2023/04/28 22:32:30;;;;;;;23.90;10.70;;;;;;;9.96;45.90;98452.64;435500;1253;107127;-41
2023/04/28 22:42:35;;;;;;;20.50;11.70;;;;;;;9.70;46.02;98444.70;435513;1253;97814;-40
2023/04/28 22:52:38;;;;;;;24.60;12.30;;;;;;;9.50;46.45;98433.90;435370;1250;97890;-42
2023/04/28 23:02:43;;;;;;;21.00;12.30;;;;;;;9.35;46.67;98435.23;435233;1251;107766;-41
2023/04/28 23:12:47;;;;;;;29.10;15.20;;;;;;;9.05;46.90;98433.17;435461;1254;97871;-41
2023/04/28 23:32:59;;;;;;;28.60;15.50;;;;;;;8.43;47.96;98419.41;435413;1250;97870;-42
2023/04/28 23:43:06;;;;;;;30.00;16.10;;;;;;;8.14;48.63;98407.32;435273;1254;97849;-42
2023/04/28 23:53:09;;;;;;;40.40;19.80;;;;;;;8.07;49.21;98407.28;435179;1256;96998;-42
